Time,TemperatureF,DewpointF,PressureIn,WindDirection,WindDirectionDegrees,WindSpeedMPH,WindSpeedGustMPH,Humidity,HourlyPrecipIn,Conditions,Clouds,dailyrainin,SolarRadiationWatts/m^2,SoftwareType,DateUTC
2013-02-11 00:01:00,17.0,4.0,-100.00,West,278,4.0,15.0,57,0.00,,,0.00,0.000000,,2013-02-11 07:01:00,
2013-02-11 00:11:00,17.0,4.0,-100.00,West,278,4.0,15.0,57,0.00,,,0.00,0.000000,,2013-02-11 07:11:00,
2013-02-11 00:42:00,16.0,4.0,-100.00,SW,225,4.0,7.0,59,0.00,,,-99.99,0.000000,,2013-02-11 07:42:00,
2013-02-11 00:52:00,16.0,4.0,-100.00,SW,225,4.0,7.0,59,0.00,,,-99.99,0.000000,,2013-02-11 07:52:00,
2013-02-11 01:01:00,16.0,4.0,-100.00,SW,225,4.0,7.0,59,0.00,,,-99.99,0.000000,,2013-02-11 08:01:00,
2013-02-11 01:11:00,16.0,4.0,-100.00,SW,225,4.0,7.0,59,0.00,,,-99.99,0.000000,,2013-02-11 08:11:00,
2013-02-11 01:42:00,15.0,5.0,-100.00,SSW,208,4.0,6.0,64,0.00,,,0.00,0.000000,,2013-02-11 08:42:00,
2013-02-11 01:52:00,15.0,5.0,-100.00,SSW,208,4.0,6.0,64,0.00,,,0.00,0.000000,,2013-02-11 08:52:00,
2013-02-11 02:01:00,15.0,5.0,-100.00,SSW,208,4.0,6.0,64,0.00,,,0.00,0.000000,,2013-02-11 09:01:00,
2013-02-11 02:12:00,15.0,5.0,-100.00,SSW,208,4.0,6.0,64,0.00,,,0.00,0.000000,,2013-02-11 09:12:00,
2013-02-11 02:32:00,15.0,4.0,-100.00,WSW,254,4.0,6.0,62,0.00,,,0.00,0.000000,,2013-02-11 09:32:00,
2013-02-11 02:42:00,15.0,4.0,-100.00,WSW,254,4.0,6.0,62,0.00,,,0.00,0.000000,,2013-02-11 09:42:00,
2013-02-11 02:52:00,15.0,4.0,-100.00,WSW,254,4.0,6.0,62,0.00,,,0.00,0.000000,,2013-02-11 09:52:00,
2013-02-11 03:01:00,15.0,4.0,-100.00,WSW,254,4.0,6.0,62,0.00,,,0.00,0.000000,,2013-02-11 10:01:00,
2013-02-11 03:11:00,15.0,4.0,-100.00,WSW,254,4.0,6.0,62,0.00,,,0.00,0.000000,,2013-02-11 10:11:00,
2013-02-11 03:42:00,15.0,4.0,-100.00,WSW,251,3.0,8.0,61,0.00,,,0.00,0.000000,,2013-02-11 10:42:00,
2013-02-11 03:52:00,15.0,4.0,-100.00,WSW,251,3.0,8.0,61,0.00,,,0.00,0.000000,,2013-02-11 10:52:00,
2013-02-11 04:01:00,15.0,4.0,-100.00,WSW,251,3.0,8.0,61,0.00,,,0.00,0.000000,,2013-02-11 11:01:00,
2013-02-11 04:11:00,15.0,4.0,-100.00,WSW,251,3.0,8.0,61,0.00,,,0.00,0.000000,,2013-02-11 11:11:00,
2013-02-11 04:42:00,15.0,4.0,-100.00,SW,234,4.0,8.0,61,0.00,,,0.00,0.000000,,2013-02-11 11:42:00,
2013-02-11 04:52:00,15.0,4.0,-100.00,SW,234,4.0,8.0,61,0.00,,,0.00,0.000000,,2013-02-11 11:52:00,
2013-02-11 05:03:00,15.0,4.0,-100.00,SW,234,4.0,8.0,61,0.00,,,0.00,0.000000,,2013-02-11 12:03:00,
2013-02-11 05:12:00,15.0,4.0,-100.00,SW,234,4.0,8.0,61,0.00,,,0.00,0.000000,,2013-02-11 12:12:00,
2013-02-11 05:32:00,13.0,4.0,-100.00,SW,217,3.0,9.0,66,0.00,,,-99.99,0.000000,,2013-02-11 12:32:00,
2013-02-11 05:42:00,13.0,4.0,-100.00,SW,217,3.0,9.0,66,0.00,,,-99.99,0.000000,,2013-02-11 12:42:00,
2013-02-11 05:52:00,13.0,4.0,-100.00,SW,217,3.0,9.0,66,0.00,,,-99.99,0.000000,,2013-02-11 12:52:00,
2013-02-11 06:02:00,13.0,4.0,-100.00,SW,217,3.0,9.0,66,0.00,,,-99.99,0.000000,,2013-02-11 13:02:00,
2013-02-11 06:11:00,13.0,4.0,-100.00,SW,217,3.0,9.0,66,0.00,,,-99.99,0.000000,,2013-02-11 13:11:00,
2013-02-11 06:42:00,13.0,4.0,-100.00,SSW,207,5.0,9.0,66,0.00,,,-99.99,0.000000,,2013-02-11 13:42:00,
2013-02-11 06:52:00,13.0,4.0,-100.00,SSW,207,5.0,9.0,66,0.00,,,-99.99,0.000000,,2013-02-11 13:52:00,
2013-02-11 07:02:00,13.0,4.0,-100.00,SSW,207,5.0,9.0,66,0.00,,,-99.99,0.000000,,2013-02-11 14:02:00,
2013-02-11 07:11:00,13.0,4.0,-100.00,SSW,207,5.0,9.0,66,0.00,,,-99.99,0.000000,,2013-02-11 14:11:00,
2013-02-11 07:42:00,12.0,3.0,-100.00,SSW,194,5.0,7.0,67,0.00,,,-99.99,3.000000,,2013-02-11 14:42:00,
2013-02-11 07:53:00,12.0,3.0,-100.00,SSW,194,5.0,7.0,67,0.00,,,-99.99,3.000000,,2013-02-11 14:53:00,
2013-02-11 08:02:00,12.0,3.0,-100.00,SSW,194,5.0,7.0,67,0.00,,,-99.99,3.000000,,2013-02-11 15:02:00,
2013-02-11 08:11:00,12.0,3.0,-100.00,SSW,194,5.0,7.0,67,0.00,,,-99.99,3.000000,,2013-02-11 15:11:00,
2013-02-11 08:42:00,17.0,5.0,-100.00,SW,225,7.0,11.0,59,0.00,,,0.00,73.000000,,2013-02-11 15:42:00,
2013-02-11 08:52:00,17.0,5.0,-100.00,SW,225,7.0,11.0,59,0.00,,,0.00,73.000000,,2013-02-11 15:52:00,
2013-02-11 09:02:00,17.0,5.0,-100.00,SW,225,7.0,11.0,59,0.00,,,0.00,73.000000,,2013-02-11 16:02:00,
2013-02-11 09:11:00,17.0,5.0,-100.00,SW,225,7.0,11.0,59,0.00,,,0.00,73.000000,,2013-02-11 16:11:00,
2013-02-11 09:32:00,21.0,9.0,-100.00,South,174,8.0,13.0,58,0.00,,,0.00,277.000000,,2013-02-11 16:32:00,
2013-02-11 09:42:00,21.0,9.0,-100.00,South,174,8.0,13.0,58,0.00,,,0.00,277.000000,,2013-02-11 16:42:00,
2013-02-11 09:52:00,21.0,9.0,-100.00,South,174,8.0,13.0,58,0.00,,,0.00,277.000000,,2013-02-11 16:52:00,
2013-02-11 10:02:00,21.0,9.0,-100.00,South,174,8.0,13.0,58,0.00,,,0.00,277.000000,,2013-02-11 17:02:00,
2013-02-11 10:11:00,21.0,9.0,-100.00,South,174,8.0,13.0,58,0.00,,,0.00,277.000000,,2013-02-11 17:11:00,
2013-02-11 10:42:00,24.0,10.0,-100.00,South,180,10.0,16.0,54,0.00,,,0.00,460.000000,,2013-02-11 17:42:00,
2013-02-11 10:53:00,24.0,10.0,-100.00,South,180,10.0,16.0,54,0.00,,,0.00,460.000000,,2013-02-11 17:53:00,
2013-02-11 11:02:00,24.0,10.0,-100.00,South,180,10.0,16.0,54,0.00,,,0.00,460.000000,,2013-02-11 18:02:00,
2013-02-11 11:11:00,24.0,10.0,-100.00,South,180,10.0,16.0,54,0.00,,,0.00,460.000000,,2013-02-11 18:11:00,
2013-02-11 11:42:00,26.0,9.0,-100.00,SW,228,8.0,17.0,49,0.00,,,0.00,613.000000,,2013-02-11 18:42:00,
2013-02-11 11:53:00,26.0,9.0,-100.00,SW,228,8.0,17.0,49,0.00,,,0.00,613.000000,,2013-02-11 18:53:00,
2013-02-11 12:02:00,26.0,9.0,-100.00,SW,228,8.0,17.0,49,0.00,,,0.00,613.000000,,2013-02-11 19:02:00,
2013-02-11 12:11:00,26.0,9.0,-100.00,SW,228,8.0,17.0,49,0.00,,,0.00,613.000000,,2013-02-11 19:11:00,
2013-02-11 13:42:00,30.0,8.0,-100.00,WSW,251,8.0,23.0,38,-99.99,,,0.00,726.000000,,2013-02-11 20:42:00,
2013-02-11 13:52:00,30.0,8.0,-100.00,WSW,251,8.0,23.0,38,-99.99,,,0.00,726.000000,,2013-02-11 20:52:00,
2013-02-11 14:02:00,30.0,8.0,-100.00,WSW,251,8.0,23.0,38,-99.99,,,0.00,726.000000,,2013-02-11 21:02:00,
2013-02-11 14:11:00,30.0,8.0,-100.00,WSW,251,8.0,23.0,38,-99.99,,,0.00,726.000000,,2013-02-11 21:11:00,
2013-02-11 14:32:00,29.0,5.0,-100.00,West,278,14.0,28.0,36,0.00,,,0.00,678.000000,,2013-02-11 21:32:00,
2013-02-11 14:42:00,29.0,5.0,-100.00,West,278,14.0,28.0,36,0.00,,,0.00,678.000000,,2013-02-11 21:42:00,
2013-02-11 14:52:00,29.0,5.0,-100.00,West,278,14.0,28.0,36,0.00,,,0.00,678.000000,,2013-02-11 21:52:00,
2013-02-11 15:02:00,29.0,5.0,-100.00,West,278,14.0,28.0,36,0.00,,,0.00,678.000000,,2013-02-11 22:02:00,
2013-02-11 15:11:00,29.0,5.0,-100.00,West,278,14.0,28.0,36,0.00,,,0.00,678.000000,,2013-02-11 22:11:00,
2013-02-11 15:32:00,30.0,6.0,-100.00,West,280,11.0,22.0,35,0.00,,,0.00,560.000000,,2013-02-11 22:32:00,
2013-02-11 15:42:00,30.0,6.0,-100.00,West,280,11.0,22.0,35,0.00,,,0.00,560.000000,,2013-02-11 22:42:00,
2013-02-11 15:52:00,30.0,6.0,-100.00,West,280,11.0,22.0,35,0.00,,,0.00,560.000000,,2013-02-11 22:52:00,
2013-02-11 16:02:00,30.0,6.0,-100.00,West,280,11.0,22.0,35,0.00,,,0.00,560.000000,,2013-02-11 23:02:00,
2013-02-11 16:11:00,30.0,6.0,-100.00,West,280,11.0,22.0,35,0.00,,,0.00,560.000000,,2013-02-11 23:11:00,
2013-02-11 16:42:00,29.0,4.0,-100.00,WNW,288,10.0,20.0,34,0.00,,,0.00,382.000000,,2013-02-11 23:42:00,
2013-02-11 16:52:00,29.0,4.0,-100.00,WNW,288,10.0,20.0,34,0.00,,,0.00,382.000000,,2013-02-11 23:52:00,
2013-02-11 17:02:00,29.0,4.0,-100.00,WNW,288,10.0,20.0,34,0.00,,,0.00,382.000000,,2013-02-12 00:02:00,
2013-02-11 17:11:00,29.0,4.0,-100.00,WNW,288,10.0,20.0,34,0.00,,,0.00,382.000000,,2013-02-12 00:11:00,
2013-02-11 17:32:00,26.0,4.0,-100.00,West,262,7.0,14.0,38,0.00,,,0.00,59.000000,,2013-02-12 00:32:00,
2013-02-11 17:42:00,26.0,4.0,-100.00,West,262,7.0,14.0,38,0.00,,,0.00,59.000000,,2013-02-12 00:42:00,
2013-02-11 17:52:00,26.0,4.0,-100.00,West,262,7.0,14.0,38,0.00,,,0.00,59.000000,,2013-02-12 00:52:00,
2013-02-11 18:02:00,26.0,4.0,-100.00,West,262,7.0,14.0,38,0.00,,,0.00,59.000000,,2013-02-12 01:02:00,
2013-02-11 18:11:00,26.0,4.0,-100.00,West,262,7.0,14.0,38,0.00,,,0.00,59.000000,,2013-02-12 01:11:00,
2013-02-11 18:42:00,24.0,4.0,-100.00,WNW,290,4.0,13.0,42,0.00,,,-99.99,2.000000,,2013-02-12 01:42:00,
2013-02-11 18:52:00,24.0,4.0,-100.00,WNW,290,4.0,13.0,42,0.00,,,-99.99,2.000000,,2013-02-12 01:52:00,
2013-02-11 19:01:00,24.0,4.0,-100.00,WNW,290,4.0,13.0,42,0.00,,,-99.99,2.000000,,2013-02-12 02:01:00,
2013-02-11 19:12:00,24.0,4.0,-100.00,WNW,290,4.0,13.0,42,0.00,,,-99.99,2.000000,,2013-02-12 02:12:00,
2013-02-11 19:32:00,23.0,5.0,-100.00,West,268,4.0,10.0,45,0.00,,,0.00,0.000000,,2013-02-12 02:32:00,
2013-02-11 19:42:00,23.0,5.0,-100.00,West,268,4.0,10.0,45,0.00,,,0.00,0.000000,,2013-02-12 02:42:00,
2013-02-11 19:53:00,23.0,5.0,-100.00,West,268,4.0,10.0,45,0.00,,,0.00,0.000000,,2013-02-12 02:53:00,
2013-02-11 20:02:00,23.0,5.0,-100.00,West,268,4.0,10.0,45,0.00,,,0.00,0.000000,,2013-02-12 03:02:00,
2013-02-11 20:11:00,23.0,5.0,-100.00,West,268,4.0,10.0,45,0.00,,,0.00,0.000000,,2013-02-12 03:11:00,
2013-02-11 20:32:00,23.0,5.0,-100.00,West,281,5.0,11.0,45,0.00,,,0.00,0.000000,,2013-02-12 03:32:00,
2013-02-11 20:42:00,23.0,5.0,-100.00,West,281,5.0,11.0,45,0.00,,,0.00,0.000000,,2013-02-12 03:42:00,
2013-02-11 20:52:00,23.0,5.0,-100.00,West,281,5.0,11.0,45,0.00,,,0.00,0.000000,,2013-02-12 03:52:00,
2013-02-11 21:01:00,23.0,5.0,-100.00,West,281,5.0,11.0,45,0.00,,,0.00,0.000000,,2013-02-12 04:01:00,
2013-02-11 21:11:00,23.0,5.0,-100.00,West,281,5.0,11.0,45,0.00,,,0.00,0.000000,,2013-02-12 04:11:00,
2013-02-11 21:32:00,23.0,6.0,-100.00,WSW,239,5.0,11.0,47,0.00,,,0.00,0.000000,,2013-02-12 04:32:00,
2013-02-11 21:42:00,23.0,6.0,-100.00,WSW,239,5.0,11.0,47,0.00,,,0.00,0.000000,,2013-02-12 04:42:00,
2013-02-11 21:52:00,23.0,6.0,-100.00,WSW,239,5.0,11.0,47,0.00,,,0.00,0.000000,,2013-02-12 04:52:00,
2013-02-11 22:01:00,23.0,6.0,-100.00,WSW,239,5.0,11.0,47,0.00,,,0.00,0.000000,,2013-02-12 05:01:00,
2013-02-11 22:11:00,23.0,6.0,-100.00,WSW,239,5.0,11.0,47,0.00,,,0.00,0.000000,,2013-02-12 05:11:00,
2013-02-11 22:42:00,23.0,7.0,-100.00,West,269,11.0,23.0,50,0.00,,,0.00,0.000000,,2013-02-12 05:42:00,
2013-02-11 22:52:00,23.0,7.0,-100.00,West,269,11.0,23.0,50,0.00,,,0.00,0.000000,,2013-02-12 05:52:00,
2013-02-11 23:01:00,23.0,7.0,-100.00,West,269,11.0,23.0,50,0.00,,,0.00,0.000000,,2013-02-12 06:01:00,
2013-02-11 23:12:00,23.0,7.0,-100.00,West,269,11.0,23.0,50,0.00,,,0.00,0.000000,,2013-02-12 06:12:00,
2013-02-11 23:32:00,22.0,8.0,-100.00,West,274,12.0,23.0,53,0.00,,,0.00,0.000000,,2013-02-12 06:32:00,
2013-02-11 23:42:00,22.0,8.0,-100.00,West,274,12.0,23.0,53,0.00,,,0.00,0.000000,,2013-02-12 06:42:00,
2013-02-11 23:52:00,22.0,8.0,-100.00,West,274,12.0,23.0,53,0.00,,,0.00,0.000000,,2013-02-12 06:52:00,